Time;durP1;ratioP1;P1;durP2;ratioP2;P2;SDS_P1;SDS_P2;PMS_P1;PMS_P2;Temp;Humidity;BMP_temperature;BMP_pressure;BME280_temperature;BME280_humidity;BME280_pressure;Samples;Min_cycle;Max_cycle;Signal;HPM_P1;HPM_P2
2022/01/05 00:01:03;;;;;;;;;;;;;;;;;;;;;
2022/01/05 00:23:34;;;;;;;5.22;4.47;;;;;;;10.83;58.92;97952.02;1604182;117;26042;-92
2022/01/05 00:34:03;;;;;;;;;;;;;;;;;;;;;
2022/01/05 01:13:14;;;;;;;;;;;;;;;;;;;;;
2022/01/05 01:37:58;;;;;;;;;;;;;;;;;;;;;
2022/01/05 01:42:15;;;;;;;6.67;4.83;;;;;;;10.59;59.55;98011.00;;;;
2022/01/05 01:45:46;;;;;;;;;;;;;;;;;;;;;
2022/01/05 01:49:48;;;;;;;;;;;;;;;;;;;;;
2022/01/05 01:53:26;;;;;;;5.97;5.40;;;;;;;10.66;59.53;98024.80;1550378;126;26417;-89
2022/01/05 01:57:22;;;;;;;;;;;;;;;;;;;;;
2022/01/05 02:07:17;;;;;;;;;;;;;;;;;;;;;
2022/01/05 02:11:46;;;;;;;8.10;6.67;;;;;;;10.73;59.47;98035.13;1618933;118;25975;-87
2022/01/05 02:47:57;;;;;;;9.90;7.95;;;;;;;10.77;59.57;98052.44;1754039;110;25789;-86
2022/01/05 02:52:24;;;;;;;;;;;;;;;;;;;;;
2022/01/05 02:55:55;;;;;;;9.90;8.33;;;;;;;10.77;59.61;98062.86;1717593;108;26182;-90
2022/01/05 03:03:26;;;;;;;8.73;7.83;;;;;;;10.79;59.68;98081.06;1743228;111;26205;-90
2022/01/05 03:07:47;;;;;;;;;;;;;;;;;;;;;
2022/01/05 03:19:09;;;;;;;14.93;8.43;;;;;;;10.81;59.71;98089.29;1773813;109;25831;-89
2022/01/05 03:22:52;;;;;;;;;;;;;;;10.82;59.77;98095.36;1728348;112;25515;-92
2022/01/05 03:32:06;;;;;;;;;;;;;;;;;;;;;
2022/01/05 03:36:44;;;;;;;;;;;;;;;;;;;;;
2022/01/05 04:03:41;;;;;;;;;;;;;;;;;;;;;
2022/01/05 04:08:37;;;;;;;8.60;7.65;;;;;;;10.88;59.88;98078.34;1616209;116;25843;-86
2022/01/05 04:17:36;;;;;;;;;;;;;;;;;;;;;
2022/01/05 04:50:07;;;;;;;;;;;;;;;;;;;;;
2022/01/05 05:06:57;;;;;;;11.60;8.50;;;;;;;10.67;59.87;98116.43;1705141;110;26037;-90
2022/01/05 05:11:09;;;;;;;;;;;;;;;;;;;;;
2022/01/05 05:15:17;;;;;;;8.40;7.65;;;;;;;10.68;59.91;98099.91;1850490;87;26352;-88
2022/01/05 05:19:08;;;;;;;;;;;;;;;;;;;;;
2022/01/05 05:22:59;;;;;;;10.53;8.48;;;;;;;10.70;59.86;98086.39;2279173;85;25650;-92
2022/01/05 05:30:50;;;;;;;;;;;;;;;;;;;;;
2022/01/05 05:34:38;;;;;;;;;;;;;;;;;;;;;
2022/01/05 05:38:28;;;;;;;;;;;;;;;;;;;;;
2022/01/05 05:45:45;;;;;;;;;;;;;;;;;;;;;
2022/01/05 05:49:28;;;;;;;10.43;9.50;;;;;;;10.84;59.74;98153.11;1960778;99;25759;-87
2022/01/05 05:53:29;;;;;;;;;;;;;;;;;;;;;
2022/01/05 05:57:15;;;;;;;8.35;7.65;;;;;;;10.84;59.68;98171.34;1929666;99;26273;-90
2022/01/05 06:01:25;;;;;;;;;;;;;;;;;;;;;
2022/01/05 07:07:45;;;;;;;;;;;;;;;;;;;;;
2022/01/05 07:18:33;;;;;;;;;;;;;;;;;;;;;
2022/01/05 07:27:35;;;;;;;8.18;6.60;;;;;;;10.84;59.17;98219.56;1813328;104;25959;-89
2022/01/05 08:01:00;;;;;;;;;;;;;;;;;;;;;
2022/01/05 08:30:05;;;;;;;;;;;;;;;;;;;;;
2022/01/05 08:44:59;;;;;;;6.10;5.60;;;;;;;11.00;58.90;98204.60;1777494;109;25867;-87
2022/01/05 08:56:54;;;;;;;6.30;5.75;;;;;;;10.99;58.86;98223.71;1690367;114;26150;-86
2022/01/05 09:00:36;;;;;;;5.87;5.33;;;;;;;11.04;58.83;98227.59;1702025;112;25951;-84
2022/01/05 09:04:20;;;;;;;6.10;5.50;;;;;;;11.10;58.80;98218.36;1738848;112;25919;-87
2022/01/05 09:08:06;;;;;;;;;;;;;;;;;;;;;
2022/01/05 09:11:31;;;;;;;6.03;5.42;;;;;;;11.18;58.74;98222.19;1762785;110;26002;-84
2022/01/05 09:15:04;;;;;;;6.22;5.62;;;;;;;11.22;58.70;98217.34;1786006;107;26122;-84
2022/01/05 09:18:44;;;;;;;7.15;6.55;;;;;;;11.30;58.68;98218.09;1823242;107;25803;-86
2022/01/05 09:22:18;;;;;;;8.25;7.42;;;;;;;11.36;58.59;98223.22;1806367;106;26482;-84
2022/01/05 09:25:51;;;;;;;8.18;7.10;;;;;;;11.41;58.56;98218.82;1799192;106;25998;-86
2022/01/05 09:29:39;;;;;;;7.62;5.92;;;;;;;11.47;58.45;98217.84;1780298;108;25943;-85
2022/01/05 09:36:58;;;;;;;;;;;;;;;;;;;;;
2022/01/05 09:44:29;;;;;;;6.50;5.83;;;;;;;11.68;58.22;98208.86;1864564;105;25961;-85
2022/01/05 09:48:37;;;;;;;9.23;7.30;;;;;;;11.73;58.19;98208.32;1832893;106;25905;-87
2022/01/05 09:52:08;;;;;;;6.72;5.72;;;;;;;11.78;58.10;98216.51;1836904;105;25937;-85
2022/01/05 09:55:48;;;;;;;7.20;6.25;;;;;;;11.85;58.03;98219.06;1864702;103;25902;-86
2022/01/05 10:02:59;;;;;;;7.03;6.42;;;;;;;11.97;57.88;98210.56;1867290;104;25851;-85
2022/01/05 10:06:36;;;;;;;6.53;5.92;;;;;;;12.04;57.79;98226.98;1853943;105;25853;-85
2022/01/05 10:10:13;;;;;;;6.53;5.97;;;;;;;12.09;57.69;98224.31;1880956;103;25888;-84
2022/01/05 10:13:37;;;;;;;6.25;5.65;;;;;;;12.11;57.59;98221.22;1867805;105;25776;-87
2022/01/05 10:17:45;;;;;;;6.30;5.70;;;;;;;12.10;57.59;98220.80;1882134;103;25740;-86
2022/01/05 10:21:17;;;;;;;6.40;5.78;;;;;;;12.09;57.55;98223.01;1962718;97;25722;-85
2022/01/05 10:24:56;;;;;;;9.28;5.90;;;;;;;12.07;57.51;98220.86;1944749;100;26091;-86
2022/01/05 10:28:31;;;;;;;6.87;5.58;;;;;;;12.05;57.53;98219.59;1943920;100;25497;-87
2022/01/05 10:32:06;;;;;;;6.12;5.58;;;;;;;12.04;57.53;98226.53;1943652;100;25911;-87
2022/01/05 10:35:35;;;;;;;7.05;5.67;;;;;;;12.09;58.46;98223.01;1899411;101;25866;-88
2022/01/05 10:39:06;;;;;;;6.30;5.70;;;;;;;12.14;58.50;98211.58;1913969;101;26527;-88
2022/01/05 10:42:37;;;;;;;5.83;5.28;;;;;;;12.15;58.52;98208.09;1933953;100;25776;-86
2022/01/05 10:46:19;;;;;;;6.20;4.97;;;;;;;12.15;58.45;98212.02;1858956;100;26075;-86
2022/01/05 10:49:46;;;;;;;6.62;6.03;;;;;;;12.15;58.42;98202.87;1858165;103;26482;-87
2022/01/05 10:53:42;;;;;;;6.53;5.92;;;;;;;12.18;58.39;98205.44;1908577;103;25797;-88
2022/01/05 10:57:08;;;;;;;6.55;5.87;;;;;;;12.22;58.33;98194.48;1906535;101;25999;-85
2022/01/05 11:00:54;;;;;;;5.65;5.15;;;;;;;12.25;58.28;98204.43;1872466;100;25757;-87
2022/01/05 11:04:29;;;;;;;6.10;5.53;;;;;;;12.29;58.20;98189.11;1864264;102;25866;-87
2022/01/05 11:08:34;;;;;;;6.22;5.72;;;;;;;12.34;58.11;98188.16;1875430;104;25903;-86
2022/01/05 11:11:52;;;;;;;7.22;5.87;;;;;;;12.36;58.02;98200.31;1880256;100;25920;-86
2022/01/05 11:15:33;;;;;;;5.97;5.50;;;;;;;12.37;57.96;98183.73;1914612;99;25994;-86
2022/01/05 11:23:09;;;;;;;6.35;5.65;;;;;;;12.42;57.83;98166.66;1929691;97;25827;-87
2022/01/05 11:27:28;;;;;;;5.75;5.33;;;;;;;12.44;57.77;98166.19;1863889;101;26065;-87
2022/01/05 11:31:09;;;;;;;6.90;6.30;;;;;;;12.44;57.70;98160.96;1869152;104;26586;-88
2022/01/05 11:39:10;;;;;;;5.67;5.17;;;;;;;12.41;57.59;98173.63;1823504;106;25778;-84
2022/01/05 11:42:48;;;;;;;6.70;6.00;;;;;;;12.36;57.62;98189.86;1808098;106;25861;-85
2022/01/05 11:50:50;;;;;;;;;;;;;;;;;;;;;
2022/01/05 11:54:37;;;;;;;7.78;6.65;;;;;;;12.25;57.83;98157.41;1740443;111;25915;-90
2022/01/05 11:58:47;;;;;;;;;;;;;;;;;;;;;
2022/01/05 12:06:27;;;;;;;7.33;5.72;;;;;;;12.13;58.25;98165.91;1735702;111;25700;-91
2022/01/05 12:10:11;;;;;;;;;;;;;;;;;;;;;
2022/01/05 12:14:37;;;;;;;6.53;5.80;;;;;;;12.08;58.96;98152.91;1732456;112;25812;-89
2022/01/05 12:18:46;;;;;;;;;;;;;;;;;;;;;
2022/01/05 12:28:03;;;;;;;6.72;6.12;;;;;;;12.03;59.29;98142.56;1813244;104;25914;-90
2022/01/05 12:31:57;;;;;;;8.40;6.95;;;;;;;11.97;59.33;98135.28;1818825;107;25898;-91
2022/01/05 12:36:15;;;;;;;6.42;5.83;;;;;;;11.94;59.44;98136.64;1830740;106;25821;-89
2022/01/05 12:55:59;;;;;;;;;;;;;;;;;;;;;
2022/01/05 12:59:36;;;;;;;5.92;5.33;;;;;;;11.89;59.85;98139.34;2377825;81;25668;-88
2022/01/05 13:03:09;;;;;;;5.03;4.60;;;;;;;11.85;59.79;98136.38;2344917;83;26431;-87
2022/01/05 13:06:58;;;;;;;5.30;4.37;;;;;;;11.83;59.87;98139.41;2339092;84;26256;-87
2022/01/05 13:10:32;;;;;;;6.67;4.97;;;;;;;11.82;60.00;98149.00;2224948;87;25795;-86
2022/01/05 13:14:35;;;;;;;10.18;4.90;;;;;;;11.85;59.99;98142.05;2223510;87;26130;-88
2022/01/05 13:17:59;;;;;;;5.10;4.60;;;;;;;11.83;59.91;98149.41;2226317;86;25789;-85
2022/01/05 13:21:34;;;;;;;5.15;4.53;;;;;;;11.83;60.00;98151.16;2237212;86;26272;-86
2022/01/05 13:25:09;;;;;;;7.30;5.42;;;;;;;11.82;59.97;98148.14;2252304;86;25798;-85
2022/01/05 13:28:53;;;;;;;;;;;;;;;11.82;59.95;98152.91;2259422;86;25762;-85
2022/01/05 13:32:13;;;;;;;5.70;4.85;;;;;;;11.82;59.96;98151.61;2196494;87;25849;-86
2022/01/05 13:35:50;;;;;;;17.37;6.30;;;;;;;11.83;59.98;98156.38;2161560;90;25969;-88
2022/01/05 13:40:07;;;;;;;;;;;;;;;;;;;;;
2022/01/05 13:44:05;;;;;;;5.30;4.25;;;;;;;11.82;60.18;98152.91;2124977;90;25797;-90
2022/01/05 13:47:26;;;;;;;4.72;4.05;;;;;;;11.86;60.21;98156.37;2045918;94;25840;-91
2022/01/05 13:51:08;;;;;;;4.83;4.42;;;;;;;11.88;60.37;98168.08;2042949;94;25726;-85
2022/01/05 13:54:42;;;;;;;6.00;4.70;;;;;;;11.90;60.28;98180.22;2064486;93;25994;-84
2022/01/05 13:58:21;;;;;;;4.03;3.33;;;;;;;11.90;60.17;98176.30;2063808;94;25748;-86
2022/01/05 14:02:14;;;;;;;6.72;3.42;;;;;;;11.90;59.98;98188.50;2084443;93;26372;-85
2022/01/05 14:05:43;;;;;;;3.50;2.80;;;;;;;11.89;59.83;98198.09;2091733;92;25867;-86
2022/01/05 14:09:10;;;;;;;2.92;2.15;;;;;;;11.84;59.56;98198.59;2080226;92;25884;-87
2022/01/05 14:12:47;;;;;;;2.70;2.50;;;;;;;11.82;59.50;98199.05;2111631;89;30358;-86
2022/01/05 14:19:35;;;;;;;4.80;2.33;;;;;;;11.78;59.25;98198.69;2099816;90;25783;-86
2022/01/05 14:23:21;;;;;;;3.27;1.92;;;;;;;11.74;59.10;98204.81;2092850;93;25786;-85
2022/01/05 14:26:50;;;;;;;2.22;1.47;;;;;;;11.71;58.99;98229.23;2130835;90;25834;-86
2022/01/05 14:30:32;;;;;;;;;;;;;;;;;;;;;
2022/01/05 14:34:07;;;;;;;2.12;1.80;;;;;;;11.67;59.12;98254.94;2131913;90;25662;-86
2022/01/05 14:38:08;;;;;;;7.42;1.40;;;;;;;11.66;58.90;98272.80;2158429;89;25850;-84
2022/01/05 14:41:46;;;;;;;1.45;1.25;;;;;;;11.59;58.75;98275.08;2098377;90;25892;-84
2022/01/05 14:45:34;;;;;;;2.90;1.70;;;;;;;11.52;58.59;98253.88;2185077;86;31559;-83
2022/01/05 14:49:17;;;;;;;2.45;1.57;;;;;;;11.49;58.71;98273.48;2159880;89;25715;-83
2022/01/05 14:53:03;;;;;;;2.60;1.02;;;;;;;11.55;60.08;98288.62;2148611;86;25494;-84
2022/01/05 14:56:40;;;;;;;1.85;1.25;;;;;;;11.64;61.17;98281.08;2159915;89;25784;-81
2022/01/05 15:00:09;;;;;;;2.75;1.05;;;;;;;11.73;61.79;98285.32;2141412;90;25807;-86
2022/01/05 15:03:59;;;;;;;1.98;1.20;;;;;;;11.82;62.23;98289.97;2141145;91;25828;-83
2022/01/05 15:08:11;;;;;;;1.35;1.20;;;;;;;11.95;62.69;98300.27;2075180;93;25719;-82
2022/01/05 15:11:38;;;;;;;2.92;1.10;;;;;;;12.12;62.62;98304.78;2064336;94;25855;-84
2022/01/05 15:15:20;;;;;;;2.05;1.20;;;;;;;12.17;61.94;98312.53;2061952;95;25380;-84
2022/01/05 15:18:47;;;;;;;3.65;1.57;;;;;;;12.15;61.60;98320.82;2062056;94;25876;-83
2022/01/05 15:22:42;;;;;;;;;;;;;;;;;;;;;
2022/01/05 15:26:25;;;;;;;1.60;1.17;;;;;;;12.13;61.04;98325.23;2057883;94;25833;-87
2022/01/05 15:30:17;;;;;;;;;;;;;;;;;;;;;
2022/01/05 15:34:04;;;;;;;1.40;1.00;;;;;;;12.13;60.72;98357.88;2211783;88;25865;-84
2022/01/05 15:38:18;;;;;;;1.87;0.80;;;;;;;12.17;60.93;98359.09;2208832;87;25777;-87
2022/01/05 15:42:05;;;;;;;2.45;1.60;;;;;;;12.19;60.60;98367.78;2180099;88;25761;-88
2022/01/05 15:45:33;;;;;;;1.45;1.10;;;;;;;12.20;60.44;98364.73;2135517;90;26215;-84
2022/01/05 15:49:35;;;;;;;;;;;;;;;;;;;;;
2022/01/05 15:53:13;;;;;;;1.90;1.40;;;;;;;12.17;60.28;98367.38;2114808;91;25848;-83
2022/01/05 15:56:58;;;;;;;1.67;1.50;;;;;;;12.14;60.26;98371.34;2132700;91;25809;-92
2022/01/05 16:04:48;;;;;;;2.02;1.30;;;;;;;12.09;60.09;98359.67;2242654;85;25935;-91
2022/01/05 16:08:37;;;;;;;;;;;;;;;;;;;;;
2022/01/05 16:12:30;;;;;;;2.05;1.37;;;;;;;12.02;60.10;98372.40;2157969;87;26301;-84
2022/01/05 16:16:01;;;;;;;2.70;1.70;;;;;;;12.06;60.34;98378.00;2094922;91;25722;-84
2022/01/05 16:20:02;;;;;;;2.30;1.87;;;;;;;12.04;60.29;98383.22;2019238;95;25880;-83
2022/01/05 16:23:43;;;;;;;2.67;1.37;;;;;;;12.00;60.35;98375.02;1979121;96;25368;-80
2022/01/05 16:28:02;;;;;;;2.62;1.90;;;;;;;11.97;60.33;98382.03;1868496;103;26279;-88
2022/01/05 16:31:19;;;;;;;3.12;1.87;;;;;;;11.93;60.27;98387.74;1867508;103;25929;-82
2022/01/05 16:35:08;;;;;;;2.77;1.82;;;;;;;11.90;60.29;98383.01;1867378;103;26316;-90
2022/01/05 16:38:58;;;;;;;3.98;2.40;;;;;;;11.88;60.28;98396.52;1868758;104;25880;-81
2022/01/05 16:42:43;;;;;;;2.77;2.20;;;;;;;11.83;60.24;98392.19;1812826;106;25954;-82
2022/01/05 16:46:37;;;;;;;4.92;2.40;;;;;;;11.80;60.22;98400.05;1806122;105;25885;-83
2022/01/05 16:50:25;;;;;;;3.30;2.08;;;;;;;11.77;60.19;98405.77;1736775;111;26097;-84
2022/01/05 16:54:01;;;;;;;3.17;2.37;;;;;;;11.72;60.11;98409.75;1738088;111;25893;-81
2022/01/05 17:01:39;;;;;;;4.00;2.72;;;;;;;11.68;60.09;98411.12;1747114;110;25836;-83
2022/01/05 17:05:33;;;;;;;2.75;2.50;;;;;;;11.64;60.08;98422.45;1740427;110;26535;-81
2022/01/05 17:09:18;;;;;;;3.58;2.50;;;;;;;11.63;60.09;98426.81;1682268;115;25887;-83
2022/01/05 17:13:01;;;;;;;5.30;2.87;;;;;;;11.59;60.07;98420.77;1685899;115;26034;-84
2022/01/05 17:16:47;;;;;;;5.35;3.42;;;;;;;11.58;60.08;98429.94;1653480;117;25931;-86
2022/01/05 17:24:17;;;;;;;9.10;3.12;;;;;;;11.55;60.06;98435.19;1753160;111;25402;-88
2022/01/05 17:27:58;;;;;;;4.47;3.10;;;;;;;11.54;60.10;98436.05;1802606;107;25831;-82
2022/01/05 17:31:38;;;;;;;7.40;2.65;;;;;;;11.52;60.07;98443.05;1836079;105;25924;-89
2022/01/05 17:35:16;;;;;;;3.17;2.50;;;;;;;11.49;60.02;98445.25;1831088;105;26402;-83
2022/01/05 17:39:09;;;;;;;;;;;;;;;;;;;;;
2022/01/05 17:42:49;;;;;;;5.90;3.12;;;;;;;11.44;59.82;98440.95;1815987;106;26564;-88
2022/01/05 17:46:51;;;;;;;5.00;3.17;;;;;;;11.39;59.63;98441.45;1836242;105;26031;-81
2022/01/05 17:50:35;;;;;;;;;;;;;;;;;;;;;
2022/01/05 17:54:11;;;;;;;5.80;4.20;;;;;;;11.27;59.28;98443.33;1810264;105;26074;-82
2022/01/05 17:57:56;;;;;;;6.08;3.60;;;;;;;11.23;59.11;98449.87;1849914;104;26041;-85
2022/01/05 18:01:29;;;;;;;7.85;3.83;;;;;;;11.19;59.01;98453.39;1843258;105;25972;-87
2022/01/05 18:05:21;;;;;;;5.70;3.92;;;;;;;11.14;58.85;98459.97;1822926;105;25914;-82
2022/01/05 18:08:54;;;;;;;7.37;4.12;;;;;;;11.11;58.74;98465.21;1849721;104;25905;-85
2022/01/05 18:12:59;;;;;;;6.05;4.55;;;;;;;11.08;58.66;98469.15;1836271;105;25826;-82
2022/01/05 18:16:36;;;;;;;6.10;4.17;;;;;;;11.04;58.58;98464.84;1851099;103;25881;-86
2022/01/05 18:20:24;;;;;;;5.25;4.25;;;;;;;11.00;58.53;98466.63;1852389;103;25969;-81
2022/01/05 18:24:09;;;;;;;5.62;3.47;;;;;;;10.97;58.44;98466.64;1767797;110;25910;-88
2022/01/05 18:27:58;;;;;;;8.98;4.35;;;;;;;10.94;58.38;98482.75;1755986;109;26045;-82
2022/01/05 18:37:16;;;;;;;;;;;;;;;;;;;;;
2022/01/05 18:41:37;;;;;;;;;;;;;;;;;;;;;
2022/01/05 18:57:25;;;;;;;6.90;3.80;;;;;;;10.72;58.06;98492.02;1595833;120;26032;-82
2022/01/05 19:05:10;;;;;;;5.60;4.10;;;;;;;10.69;58.00;98509.42;1794832;107;26029;-83
2022/01/05 19:08:39;;;;;;;6.35;4.05;;;;;;;10.66;58.01;98501.18;1790738;108;26598;-87
2022/01/05 19:12:28;;;;;;;5.70;3.92;;;;;;;10.64;57.95;98502.51;1782854;108;25880;-84
2022/01/05 19:16:21;;;;;;;5.58;3.33;;;;;;;10.63;57.93;98506.00;1770674;109;25888;-83
2022/01/05 19:20:16;;;;;;;6.35;3.52;;;;;;;10.60;57.88;98510.38;1766890;109;25922;-82
2022/01/05 19:24:08;;;;;;;;;;;;;;;;;;;;;
2022/01/05 19:27:32;;;;;;;7.05;3.47;;;;;;;10.58;57.74;98518.62;1771374;109;26346;-86
2022/01/05 19:35:19;;;;;;;5.83;2.92;;;;;;;10.55;57.60;98514.73;1773607;107;25870;-86
2022/01/05 19:39:26;;;;;;;5.50;2.83;;;;;;;10.53;57.53;98503.44;1775282;109;26059;-87
2022/01/05 19:43:17;;;;;;;8.45;3.80;;;;;;;10.50;57.48;98504.34;1814833;106;25519;-86
2022/01/05 19:47:01;;;;;;;4.85;3.70;;;;;;;10.49;57.55;98499.98;1787225;108;25912;-86
2022/01/05 19:51:13;;;;;;;5.60;3.22;;;;;;;10.48;57.40;98502.62;1802428;105;25858;-80
2022/01/05 19:54:49;;;;;;;5.55;3.33;;;;;;;10.47;57.40;98508.71;1748834;109;25627;-90
2022/01/05 19:58:41;;;;;;;5.25;3.08;;;;;;;10.47;57.52;98504.80;1744584;111;26036;-82
2022/01/05 20:02:38;;;;;;;;;;;;;;;;;;;;;
2022/01/05 20:06:12;;;;;;;6.28;3.20;;;;;;;10.47;57.61;98506.11;1727754;111;25876;-89
2022/01/05 20:10:05;;;;;;;5.30;3.05;;;;;;;10.48;57.65;98518.25;1756774;109;26089;-85
2022/01/05 20:13:54;;;;;;;7.08;4.22;;;;;;;10.49;57.69;98530.39;1749349;111;26081;-84
2022/01/05 20:21:51;;;;;;;6.47;3.02;;;;;;;10.46;57.76;98528.69;1779687;109;26576;-81
2022/01/05 20:26:16;;;;;;;;;;;;;;;10.47;57.80;98529.11;1783454;108;25811;-84
2022/01/05 20:29:19;;;;;;;5.28;2.98;;;;;;;10.47;57.76;98542.13;1809770;106;26277;-83
2022/01/05 20:33:06;;;;;;;;;;;;;;;;;;;;;
2022/01/05 20:36:50;;;;;;;8.65;3.90;;;;;;;10.44;57.78;98540.84;1809516;107;25786;-88
2022/01/05 20:40:45;;;;;;;5.05;3.30;;;;;;;10.43;57.74;98537.83;1741739;112;26098;-88
2022/01/05 20:44:30;;;;;;;5.33;3.42;;;;;;;10.43;57.73;98542.14;1746547;111;25919;-83
2022/01/05 20:48:34;;;;;;;6.45;3.12;;;;;;;10.40;57.57;98544.34;1797022;107;25978;-84
2022/01/05 20:52:11;;;;;;;9.13;4.03;;;;;;;10.39;57.53;98548.70;1808466;106;26168;-86
2022/01/05 20:55:55;;;;;;;4.47;3.27;;;;;;;10.38;57.48;98542.17;1881692;101;25950;-83
2022/01/05 20:59:30;;;;;;;;;;;;;;;10.37;57.43;98543.06;1930441;101;25916;-83
2022/01/05 21:03:05;;;;;;;5.28;3.70;;;;;;;10.35;57.51;98554.77;1899529;101;25984;-85
2022/01/05 21:06:35;;;;;;;5.67;3.90;;;;;;;10.32;57.36;98543.06;1946109;100;25778;-85
2022/01/05 21:10:30;;;;;;;7.08;3.85;;;;;;;10.29;57.24;98544.41;1936521;101;25927;-82
2022/01/05 21:14:15;;;;;;;8.48;4.03;;;;;;;10.26;57.12;98556.14;1983294;97;26136;-85
2022/01/05 21:22:19;;;;;;;6.05;3.47;;;;;;;10.21;56.90;98552.64;2023696;91;25756;-81
2022/01/05 21:26:20;;;;;;;;;;;;;;;;;;;;;
2022/01/05 21:34:09;;;;;;;;;;;;;;;;;;;;;
2022/01/05 21:42:21;;;;;;;;;;;;;;;;;;;;;
2022/01/05 21:45:56;;;;;;;11.08;4.00;;;;;;;10.08;56.22;98566.58;1898557;101;26041;-81
2022/01/05 21:49:22;;;;;;;5.15;3.30;;;;;;;10.10;56.39;98590.87;1911610;100;25767;-92
2022/01/05 21:53:18;;;;;;;11.60;4.45;;;;;;;10.10;56.44;98581.77;1960884;96;25963;-85
2022/01/05 21:57:11;;;;;;;6.80;3.37;;;;;;;10.10;56.42;98564.84;1957595;98;25924;-89
2022/01/05 22:00:50;;;;;;;4.40;3.70;;;;;;;10.11;56.47;98557.45;1826032;106;26033;-86
2022/01/05 22:04:36;;;;;;;7.42;3.45;;;;;;;10.13;56.56;98559.63;1825013;106;26443;-88
2022/01/05 22:08:06;;;;;;;6.33;3.22;;;;;;;10.14;56.51;98547.03;1825935;105;26222;-89
2022/01/05 22:11:56;;;;;;;5.08;3.58;;;;;;;10.13;56.50;98548.77;1825465;105;26046;-88
2022/01/05 22:15:39;;;;;;;7.17;3.20;;;;;;;10.14;56.52;98544.42;1799666;107;26127;-87
2022/01/05 22:19:24;;;;;;;6.08;3.55;;;;;;;10.14;56.54;98544.42;1869914;103;25422;-87
2022/01/05 22:22:50;;;;;;;5.87;3.00;;;;;;;10.13;56.48;98539.66;1812120;107;25818;-87
2022/01/05 22:26:35;;;;;;;6.62;4.22;;;;;;;10.14;56.50;98540.52;1861499;101;25806;-85
2022/01/05 22:30:09;;;;;;;6.90;3.85;;;;;;;10.13;56.48;98544.01;1908013;100;26045;-84
2022/01/05 22:33:41;;;;;;;4.95;3.22;;;;;;;10.12;56.41;98553.97;1941403;99;25805;-84
2022/01/05 22:37:35;;;;;;;;;;;;;;;;;;;;;
2022/01/05 22:41:16;;;;;;;4.47;2.98;;;;;;;10.10;56.39;98559.20;1903163;101;25826;-86
2022/01/05 22:48:17;;;;;;;4.40;2.98;;;;;;;10.10;56.38;98551.39;1830804;105;25904;-87
2022/01/05 22:51:48;;;;;;;4.67;3.10;;;;;;;10.10;56.41;98557.90;1834258;105;26880;-84
2022/01/05 22:55:32;;;;;;;7.28;3.42;;;;;;;10.09;56.41;98550.97;1868714;103;25852;-88
2022/01/05 22:59:23;;;;;;;4.22;3.30;;;;;;;10.11;56.35;98559.62;1979192;98;25870;-86
2022/01/05 23:02:56;;;;;;;4.22;2.95;;;;;;;10.11;56.38;98551.80;1971776;97;26738;-83
2022/01/05 23:06:33;;;;;;;4.62;3.08;;;;;;;10.11;56.24;98550.50;1976301;97;26771;-87
2022/01/05 23:10:00;;;;;;;5.22;3.35;;;;;;;10.10;56.22;98551.83;1958726;98;25408;-83
2022/01/05 23:13:46;;;;;;;;;;;;;;;;;;;;;
2022/01/05 23:17:05;;;;;;;5.33;3.60;;;;;;;10.11;56.18;98537.93;1957742;99;25447;-83
2022/01/05 23:20:50;;;;;;;6.05;3.20;;;;;;;10.10;56.20;98540.97;1958262;99;26154;-84
2022/01/05 23:24:22;;;;;;;;;;;;;;;10.11;56.14;98532.72;1967450;98;26731;-82
2022/01/05 23:28:06;;;;;;;6.17;2.95;;;;;;;10.11;56.15;98533.58;1998090;96;25376;-84
2022/01/05 23:31:20;;;;;;;9.03;3.20;;;;;;;10.10;56.19;98528.40;1998059;97;25934;-84
2022/01/05 23:34:43;;;;;;;7.28;3.92;;;;;;;10.11;56.16;98531.42;2011570;94;25796;-83
2022/01/05 23:38:19;;;;;;;5.42;4.10;;;;;;;10.10;56.16;98528.40;2070442;93;25906;-82
2022/01/05 23:41:58;;;;;;;5.37;3.00;;;;;;;10.09;56.10;98519.73;2025996;94;25749;-82
2022/01/05 23:45:18;;;;;;;6.00;3.83;;;;;;;10.11;56.06;98537.93;2032027;95;26414;-85
2022/01/05 23:49:00;;;;;;;4.78;2.87;;;;;;;10.10;56.00;98540.11;2035831;95;25738;-85
2022/01/05 23:52:25;;;;;;;4.83;3.35;;;;;;;10.10;56.02;98536.20;2050184;94;25829;-85
2022/01/05 23:56:01;;;;;;;8.20;3.83;;;;;;;10.11;55.99;98540.53;2112667;91;26997;-83
2022/01/05 23:59:27;;;;;;;7.75;3.40;;;;;;;10.11;56.00;98541.84;2114542;91;25771;-82
